sensor_id;sensor_type;location;lat;lon;timestamp;pressure;altitude;pressure_sealevel;temperature;humidity
47524;BME280;33253;42.144;25.884;2023-08-06T00:00:09;99080.88;;;26.48;99.56
47524;BME280;33253;42.144;25.884;2023-08-06T00:02:35;99050.59;;;26.37;98.98
47524;BME280;33253;42.144;25.884;2023-08-06T00:05:00;99078.78;;;26.38;99.65
47524;BME280;33253;42.144;25.884;2023-08-06T00:07:26;99079.25;;;26.28;100.00
47524;BME280;33253;42.144;25.884;2023-08-06T00:09:51;99039.72;;;26.08;100.00
47524;BME280;33253;42.144;25.884;2023-08-06T00:12:17;99077.78;;;26.40;100.00
47524;BME280;33253;42.144;25.884;2023-08-06T00:14:42;99080.00;;;26.48;99.84
47524;BME280;33253;42.144;25.884;2023-08-06T00:17:08;99035.03;;;26.30;98.97
47524;BME280;33253;42.144;25.884;2023-08-06T00:19:34;99054.56;;;26.45;98.52
47524;BME280;33253;42.144;25.884;2023-08-06T00:21:59;99060.13;;;26.41;98.89
47524;BME280;33253;42.144;25.884;2023-08-06T00:24:25;99065.16;;;26.45;99.13
47524;BME280;33253;42.144;25.884;2023-08-06T00:26:50;99071.75;;;26.54;98.52
47524;BME280;33253;42.144;25.884;2023-08-06T00:29:15;99077.06;;;26.54;97.90
47524;BME280;33253;42.144;25.884;2023-08-06T00:31:41;99049.06;;;26.32;98.00
47524;BME280;33253;42.144;25.884;2023-08-06T00:34:06;99079.16;;;26.47;97.52
47524;BME280;33253;42.144;25.884;2023-08-06T00:36:32;99054.75;;;26.25;98.29
47524;BME280;33253;42.144;25.884;2023-08-06T00:38:57;99028.50;;;26.03;98.10
47524;BME280;33253;42.144;25.884;2023-08-06T00:41:23;99080.19;;;26.27;98.37
47524;BME280;33253;42.144;25.884;2023-08-06T00:43:48;99081.72;;;26.14;99.56
47524;BME280;33253;42.144;25.884;2023-08-06T00:46:14;99077.31;;;26.14;100.00
47524;BME280;33253;42.144;25.884;2023-08-06T00:48:40;99061.16;;;26.02;100.00
47524;BME280;33253;42.144;25.884;2023-08-06T00:51:08;99076.31;;;25.98;100.00
47524;BME280;33253;42.144;25.884;2023-08-06T00:53:35;99056.63;;;25.86;100.00
47524;BME280;33253;42.144;25.884;2023-08-06T00:56:00;99075.97;;;25.87;100.00
47524;BME280;33253;42.144;25.884;2023-08-06T00:58:26;99072.78;;;25.80;100.00
47524;BME280;33253;42.144;25.884;2023-08-06T01:00:51;99072.91;;;25.77;100.00
47524;BME280;33253;42.144;25.884;2023-08-06T01:03:17;99064.34;;;25.72;100.00
47524;BME280;33253;42.144;25.884;2023-08-06T01:05:42;99023.97;;;25.50;100.00
47524;BME280;33253;42.144;25.884;2023-08-06T01:13:43;99054.06;;;25.84;100.00
47524;BME280;33253;42.144;25.884;2023-08-06T01:16:17;99054.91;;;25.85;100.00
47524;BME280;33253;42.144;25.884;2023-08-06T01:18:43;99044.47;;;25.82;100.00
47524;BME280;33253;42.144;25.884;2023-08-06T01:21:12;99048.00;;;25.82;100.00
47524;BME280;33253;42.144;25.884;2023-08-06T01:23:38;99028.44;;;25.67;100.00
47524;BME280;33253;42.144;25.884;2023-08-06T01:31:02;99005.34;;;25.54;100.00
47524;BME280;33253;42.144;25.884;2023-08-06T01:33:32;99032.63;;;25.72;100.00
47524;BME280;33253;42.144;25.884;2023-08-06T01:35:59;99025.41;;;25.75;100.00
47524;BME280;33253;42.144;25.884;2023-08-06T01:38:24;99023.94;;;25.70;100.00
47524;BME280;33253;42.144;25.884;2023-08-06T01:40:54;99023.25;;;25.66;100.00
47524;BME280;33253;42.144;25.884;2023-08-06T01:43:19;99014.75;;;25.77;100.00
47524;BME280;33253;42.144;25.884;2023-08-06T01:45:45;99008.13;;;25.87;99.42
47524;BME280;33253;42.144;25.884;2023-08-06T01:48:10;99007.94;;;25.90;98.42
47524;BME280;33253;42.144;25.884;2023-08-06T01:50:36;99007.16;;;25.88;98.43
47524;BME280;33253;42.144;25.884;2023-08-06T01:53:01;98975.50;;;25.69;98.46
47524;BME280;33253;42.144;25.884;2023-08-06T01:55:29;98998.59;;;25.83;98.25
47524;BME280;33253;42.144;25.884;2023-08-06T01:57:54;98945.63;;;25.49;97.63
47524;BME280;33253;42.144;25.884;2023-08-06T02:00:20;99002.97;;;25.84;97.38
47524;BME280;33253;42.144;25.884;2023-08-06T02:02:45;99008.13;;;25.87;96.97
47524;BME280;33253;42.144;25.884;2023-08-06T02:05:11;98988.72;;;25.87;96.84
47524;BME280;33253;42.144;25.884;2023-08-06T02:07:36;98991.28;;;25.88;96.28
47524;BME280;33253;42.144;25.884;2023-08-06T02:10:02;98970.13;;;25.71;96.75
47524;BME280;33253;42.144;25.884;2023-08-06T02:12:27;98986.31;;;25.82;96.66
47524;BME280;33253;42.144;25.884;2023-08-06T02:14:52;98981.28;;;25.77;97.02
47524;BME280;33253;42.144;25.884;2023-08-06T02:17:18;98984.75;;;25.78;97.12
47524;BME280;33253;42.144;25.884;2023-08-06T02:19:43;98981.09;;;25.80;97.00
47524;BME280;33253;42.144;25.884;2023-08-06T02:22:09;98979.47;;;25.78;97.12
47524;BME280;33253;42.144;25.884;2023-08-06T02:24:34;98978.94;;;25.71;97.20
47524;BME280;33253;42.144;25.884;2023-08-06T02:27:00;98952.78;;;25.47;97.70
47524;BME280;33253;42.144;25.884;2023-08-06T02:29:25;98982.81;;;25.64;97.71
47524;BME280;33253;42.144;25.884;2023-08-06T02:31:51;98985.16;;;25.70;97.40
47524;BME280;33253;42.144;25.884;2023-08-06T02:34:16;98981.78;;;25.66;97.45
47524;BME280;33253;42.144;25.884;2023-08-06T02:36:42;98978.06;;;25.71;97.81
47524;BME280;33253;42.144;25.884;2023-08-06T02:39:07;98980.47;;;25.75;96.97
47524;BME280;33253;42.144;25.884;2023-08-06T02:41:33;98951.78;;;25.50;96.88
47524;BME280;33253;42.144;25.884;2023-08-06T02:43:58;98989.47;;;25.54;97.46
47524;BME280;33253;42.144;25.884;2023-08-06T02:46:24;98971.34;;;25.27;98.50
47524;BME280;33253;42.144;25.884;2023-08-06T02:48:49;98967.00;;;25.07;99.70
47524;BME280;33253;42.144;25.884;2023-08-06T02:51:15;98971.78;;;24.98;100.00
47524;BME280;33253;42.144;25.884;2023-08-06T02:53:40;98947.31;;;24.76;100.00
47524;BME280;33253;42.144;25.884;2023-08-06T02:56:06;98968.31;;;24.79;100.00
47524;BME280;33253;42.144;25.884;2023-08-06T02:58:31;98977.25;;;24.75;100.00
47524;BME280;33253;42.144;25.884;2023-08-06T03:01:05;98988.97;;;24.69;100.00
47524;BME280;33253;42.144;25.884;2023-08-06T03:03:31;98987.25;;;24.68;100.00
47524;BME280;33253;42.144;25.884;2023-08-06T03:05:57;98988.41;;;24.61;100.00
47524;BME280;33253;42.144;25.884;2023-08-06T03:08:23;98985.84;;;24.59;100.00
47524;BME280;33253;42.144;25.884;2023-08-06T03:10:49;98983.50;;;24.53;100.00
47524;BME280;33253;42.144;25.884;2023-08-06T03:13:16;98985.06;;;24.57;100.00
47524;BME280;33253;42.144;25.884;2023-08-06T03:15:42;98988.09;;;24.68;100.00
47524;BME280;33253;42.144;25.884;2023-08-06T03:18:07;98983.19;;;24.80;100.00
47524;BME280;33253;42.144;25.884;2023-08-06T03:20:33;98972.06;;;24.92;100.00
47524;BME280;33253;42.144;25.884;2023-08-06T03:22:58;98946.75;;;24.69;100.00
47524;BME280;33253;42.144;25.884;2023-08-06T03:25:24;98976.72;;;24.87;100.00
47524;BME280;33253;42.144;25.884;2023-08-06T03:27:49;98988.19;;;24.86;100.00
47524;BME280;33253;42.144;25.884;2023-08-06T03:30:15;98935.09;;;24.54;100.00
47524;BME280;33253;42.144;25.884;2023-08-06T03:32:40;98980.44;;;24.62;100.00
47524;BME280;33253;42.144;25.884;2023-08-06T03:35:06;98976.97;;;24.41;100.00
47524;BME280;33253;42.144;25.884;2023-08-06T03:37:32;98983.31;;;24.37;100.00
47524;BME280;33253;42.144;25.884;2023-08-06T03:39:57;98967.75;;;24.31;100.00
47524;BME280;33253;42.144;25.884;2023-08-06T03:42:22;98953.19;;;24.22;100.00
47524;BME280;33253;42.144;25.884;2023-08-06T03:44:48;98968.66;;;24.30;100.00
47524;BME280;33253;42.144;25.884;2023-08-06T03:47:13;98971.66;;;24.22;100.00
47524;BME280;33253;42.144;25.884;2023-08-06T03:49:39;98964.00;;;24.16;100.00
47524;BME280;33253;42.144;25.884;2023-08-06T03:52:05;98963.28;;;24.12;100.00
47524;BME280;33253;42.144;25.884;2023-08-06T03:54:30;98974.81;;;24.10;100.00
47524;BME280;33253;42.144;25.884;2023-08-06T03:56:56;98968.22;;;23.99;100.00
47524;BME280;33253;42.144;25.884;2023-08-06T03:59:21;98962.94;;;23.99;100.00
47524;BME280;33253;42.144;25.884;2023-08-06T04:01:47;98973.97;;;24.09;100.00
47524;BME280;33253;42.144;25.884;2023-08-06T04:04:13;98973.81;;;24.12;100.00
47524;BME280;33253;42.144;25.884;2023-08-06T04:06:38;98973.69;;;24.15;100.00
47524;BME280;33253;42.144;25.884;2023-08-06T04:09:03;98972.78;;;24.16;100.00
47524;BME280;33253;42.144;25.884;2023-08-06T04:11:29;98965.13;;;24.10;100.00
47524;BME280;33253;42.144;25.884;2023-08-06T04:13:57;98994.13;;;24.31;100.00
47524;BME280;33253;42.144;25.884;2023-08-06T04:16:23;98990.50;;;24.33;100.00
47524;BME280;33253;42.144;25.884;2023-08-06T04:18:48;98991.28;;;24.35;100.00
47524;BME280;33253;42.144;25.884;2023-08-06T04:21:14;98996.94;;;24.26;100.00
47524;BME280;33253;42.144;25.884;2023-08-06T04:23:39;98968.75;;;24.08;100.00
47524;BME280;33253;42.144;25.884;2023-08-06T04:26:05;98981.88;;;24.09;100.00
47524;BME280;33253;42.144;25.884;2023-08-06T04:28:30;98983.06;;;24.02;100.00
47524;BME280;33253;42.144;25.884;2023-08-06T04:30:56;98987.34;;;24.04;100.00
47524;BME280;33253;42.144;25.884;2023-08-06T04:33:21;98992.78;;;24.00;100.00
47524;BME280;33253;42.144;25.884;2023-08-06T04:35:47;98986.09;;;23.93;100.00
47524;BME280;33253;42.144;25.884;2023-08-06T04:38:12;98907.91;;;23.49;100.00
47524;BME280;33253;42.144;25.884;2023-08-06T04:40:37;98985.75;;;24.00;100.00
47524;BME280;33253;42.144;25.884;2023-08-06T04:43:03;98981.88;;;24.09;100.00
47524;BME280;33253;42.144;25.884;2023-08-06T04:45:28;98980.53;;;24.19;100.00
47524;BME280;33253;42.144;25.884;2023-08-06T04:47:54;98945.34;;;24.20;100.00
47524;BME280;33253;42.144;25.884;2023-08-06T04:50:20;98947.56;;;24.30;100.00
47524;BME280;33253;42.144;25.884;2023-08-06T04:52:45;98965.16;;;24.50;100.00
47524;BME280;33253;42.144;25.884;2023-08-06T04:55:11;98975.94;;;24.64;100.00
47524;BME280;33253;42.144;25.884;2023-08-06T04:57:36;98928.72;;;24.39;100.00
47524;BME280;33253;42.144;25.884;2023-08-06T05:00:02;98977.13;;;24.78;100.00
47524;BME280;33253;42.144;25.884;2023-08-06T05:02:27;98968.59;;;24.92;100.00
47524;BME280;33253;42.144;25.884;2023-08-06T05:04:53;98960.09;;;25.04;100.00
47524;BME280;33253;42.144;25.884;2023-08-06T05:07:18;98963.91;;;25.16;100.00
47524;BME280;33253;42.144;25.884;2023-08-06T05:09:44;98966.97;;;25.26;100.00
47524;BME280;33253;42.144;25.884;2023-08-06T05:12:09;98968.50;;;25.31;100.00
47524;BME280;33253;42.144;25.884;2023-08-06T05:14:35;98970.22;;;25.32;100.00
47524;BME280;33253;42.144;25.884;2023-08-06T05:17:00;98977.22;;;25.33;100.00
47524;BME280;33253;42.144;25.884;2023-08-06T05:19:27;98988.84;;;25.48;100.00
47524;BME280;33253;42.144;25.884;2023-08-06T05:21:53;98982.09;;;25.60;100.00
47524;BME280;33253;42.144;25.884;2023-08-06T05:24:19;98971.94;;;25.70;100.00
47524;BME280;33253;42.144;25.884;2023-08-06T05:26:44;98970.63;;;25.79;100.00
47524;BME280;33253;42.144;25.884;2023-08-06T05:29:12;98964.22;;;25.83;100.00
47524;BME280;33253;42.144;25.884;2023-08-06T05:31:37;98975.81;;;25.98;100.00
47524;BME280;33253;42.144;25.884;2023-08-06T05:34:02;98981.81;;;26.02;100.00
47524;BME280;33253;42.144;25.884;2023-08-06T05:36:28;98981.72;;;26.03;100.00
47524;BME280;33253;42.144;25.884;2023-08-06T05:38:53;98978.13;;;26.06;99.93
47524;BME280;33253;42.144;25.884;2023-08-06T05:41:19;98972.75;;;26.07;99.28
47524;BME280;33253;42.144;25.884;2023-08-06T05:43:45;98977.34;;;26.21;98.69
47524;BME280;33253;42.144;25.884;2023-08-06T05:46:10;98946.22;;;26.09;98.29
47524;BME280;33253;42.144;25.884;2023-08-06T05:48:36;98967.66;;;26.38;97.67
47524;BME280;33253;42.144;25.884;2023-08-06T05:51:01;98963.75;;;26.45;97.65
47524;BME280;33253;42.144;25.884;2023-08-06T05:53:27;98955.25;;;26.56;96.79
47524;BME280;33253;42.144;25.884;2023-08-06T05:55:52;98925.69;;;26.47;96.78
47524;BME280;33253;42.144;25.884;2023-08-06T05:58:17;98918.03;;;26.59;96.97
47524;BME280;33253;42.144;25.884;2023-08-06T06:00:45;98939.69;;;26.83;96.30
47524;BME280;33253;42.144;25.884;2023-08-06T06:03:10;98947.47;;;26.86;95.02
47524;BME280;33253;42.144;25.884;2023-08-06T06:05:39;98932.06;;;26.93;95.03
47524;BME280;33253;42.144;25.884;2023-08-06T06:08:04;98930.81;;;27.00;93.57
47524;BME280;33253;42.144;25.884;2023-08-06T06:10:30;98928.00;;;27.03;94.73
47524;BME280;33253;42.144;25.884;2023-08-06T06:12:56;98922.59;;;27.05;93.90
47524;BME280;33253;42.144;25.884;2023-08-06T06:15:21;98910.25;;;26.89;93.77
47524;BME280;33253;42.144;25.884;2023-08-06T06:17:48;98926.78;;;27.09;94.27
47524;BME280;33253;42.144;25.884;2023-08-06T06:20:13;98923.38;;;27.07;93.50
47524;BME280;33253;42.144;25.884;2023-08-06T06:22:39;98922.50;;;27.22;95.82
47524;BME280;33253;42.144;25.884;2023-08-06T06:25:05;98920.34;;;27.29;93.29
47524;BME280;33253;42.144;25.884;2023-08-06T06:27:30;98889.94;;;27.20;93.04
47524;BME280;33253;42.144;25.884;2023-08-06T06:29:56;98923.31;;;27.39;90.79
47524;BME280;33253;42.144;25.884;2023-08-06T06:32:21;98924.38;;;27.36;92.29
47524;BME280;33253;42.144;25.884;2023-08-06T06:34:47;98934.63;;;27.26;91.84
47524;BME280;33253;42.144;25.884;2023-08-06T06:37:12;98926.94;;;27.38;91.25
47524;BME280;33253;42.144;25.884;2023-08-06T06:39:38;98901.75;;;27.31;90.31
47524;BME280;33253;42.144;25.884;2023-08-06T06:42:04;98938.19;;;27.57;89.36
47524;BME280;33253;42.144;25.884;2023-08-06T06:44:30;98938.19;;;27.57;88.14
47524;BME280;33253;42.144;25.884;2023-08-06T06:46:55;98930.16;;;27.59;88.08
47524;BME280;33253;42.144;25.884;2023-08-06T06:49:21;98921.25;;;27.60;88.98
47524;BME280;33253;42.144;25.884;2023-08-06T06:51:46;98928.47;;;27.58;88.81
47524;BME280;33253;42.144;25.884;2023-08-06T06:54:12;98914.94;;;27.63;88.57
47524;BME280;33253;42.144;25.884;2023-08-06T06:56:37;98914.56;;;27.69;88.14
47524;BME280;33253;42.144;25.884;2023-08-06T06:59:02;98916.84;;;27.75;87.10
47524;BME280;33253;42.144;25.884;2023-08-06T07:01:28;98923.72;;;27.79;85.26
47524;BME280;33253;42.144;25.884;2023-08-06T07:03:53;98930.13;;;27.75;84.95
47524;BME280;33253;42.144;25.884;2023-08-06T07:06:19;98935.63;;;27.72;87.11
47524;BME280;33253;42.144;25.884;2023-08-06T07:08:45;98933.13;;;27.69;86.29
47524;BME280;33253;42.144;25.884;2023-08-06T07:11:10;98944.91;;;27.79;85.21
47524;BME280;33253;42.144;25.884;2023-08-06T07:13:36;98931.19;;;27.87;85.18
47524;BME280;33253;42.144;25.884;2023-08-06T07:16:02;98901.91;;;27.74;83.13
47524;BME280;33253;42.144;25.884;2023-08-06T07:18:28;98918.31;;;27.81;82.39
47524;BME280;33253;42.144;25.884;2023-08-06T07:20:54;98918.47;;;27.77;80.94
47524;BME280;33253;42.144;25.884;2023-08-06T07:23:21;98956.91;;;28.01;81.25
47524;BME280;33253;42.144;25.884;2023-08-06T07:25:47;98938.69;;;27.95;81.50
47524;BME280;33253;42.144;25.884;2023-08-06T07:28:13;98950.06;;;27.97;79.75
47524;BME280;33253;42.144;25.884;2023-08-06T07:30:40;98943.06;;;27.96;80.12
47524;BME280;33253;42.144;25.884;2023-08-06T07:33:05;98955.53;;;27.93;80.70
47524;BME280;33253;42.144;25.884;2023-08-06T07:35:31;98952.09;;;27.77;80.57
47524;BME280;33253;42.144;25.884;2023-08-06T07:37:57;98950.47;;;27.74;81.29
47524;BME280;33253;42.144;25.884;2023-08-06T07:40:22;98960.84;;;27.79;82.07
47524;BME280;33253;42.144;25.884;2023-08-06T07:42:48;98965.56;;;27.74;82.48
47524;BME280;33253;42.144;25.884;2023-08-06T07:45:14;98977.09;;;27.73;83.69
47524;BME280;33253;42.144;25.884;2023-08-06T07:47:39;98997.22;;;27.45;79.10
47524;BME280;33253;42.144;25.884;2023-08-06T07:50:05;99092.59;;;25.52;88.86
